Time;durP1;ratioP1;P1;durP2;ratioP2;P2;SDS_P1;SDS_P2;PMS_P1;PMS_P2;Temp;Humidity;BMP_temperature;BMP_pressure;BME280_temperature;BME280_humidity;BME280_pressure;Samples;Min_cycle;Max_cycle;Signal;HPM_P1;HPM_P2
2023/12/27 00:00:48;;;;;;;23.83;8.98;;;;;;;5.55;68.75;95561.56;5014820;28;20117;-82
2023/12/27 00:03:14;;;;;;;20.02;9.30;;;;;;;4.78;68.59;95450.56;5015825;28;20034;-82
2023/12/27 00:05:40;;;;;;;20.90;9.00;;;;;;;5.37;68.30;95543.28;5032880;28;20142;-82
2023/12/27 00:08:05;;;;;;;24.33;8.60;;;;;;;5.17;68.54;95537.59;5015444;28;20116;-83
2023/12/27 00:10:31;;;;;;;20.65;8.23;;;;;;;5.40;68.72;95564.66;5014860;28;20057;-82
2023/12/27 00:12:56;;;;;;;20.40;8.38;;;;;;;5.48;68.72;95589.03;5015272;28;20101;-82
2023/12/27 00:15:22;;;;;;;24.98;8.23;;;;;;;5.55;68.45;95589.69;5033108;28;20029;-82
2023/12/27 00:17:47;;;;;;;21.15;8.63;;;;;;;5.15;68.88;95558.88;5015494;28;20033;-82
2023/12/27 00:20:13;;;;;;;20.38;9.02;;;;;;;5.31;68.27;95565.25;5015620;28;20033;-82
2023/12/27 00:22:39;;;;;;;23.75;8.75;;;;;;;4.69;69.28;95496.59;5033191;28;20054;-82
2023/12/27 00:25:04;;;;;;;18.58;8.32;;;;;;;5.37;69.22;95588.00;5015758;28;20496;-82
2023/12/27 00:27:30;;;;;;;24.98;9.57;;;;;;;5.09;69.05;95553.72;5015205;28;20029;-83
2023/12/27 00:29:55;;;;;;;21.25;8.82;;;;;;;5.25;69.30;95580.13;5015134;28;20427;-82
2023/12/27 00:32:21;;;;;;;28.63;10.90;;;;;;;5.00;68.78;95522.53;5033140;28;20108;-83
2023/12/27 00:34:48;;;;;;;26.58;10.18;;;;;;;5.41;69.01;95599.66;5014627;28;20571;-82
2023/12/27 00:37:13;;;;;;;22.98;10.07;;;;;;;5.30;68.82;95580.22;5015101;28;20512;-82
2023/12/27 00:39:39;;;;;;;29.70;10.13;;;;;;;5.50;69.22;95616.69;5015254;28;20040;-83
2023/12/27 00:42:05;;;;;;;29.13;11.00;;;;;;;5.52;68.87;95619.09;5032486;28;20102;-82
2023/12/27 00:44:30;;;;;;;21.52;10.27;;;;;;;4.97;68.88;95551.09;5014814;28;20041;-82
2023/12/27 00:46:56;;;;;;;27.63;10.23;;;;;;;4.65;69.07;95496.25;5014411;28;20044;-83
2023/12/27 00:49:25;;;;;;;26.92;10.52;;;;;;;5.04;68.85;95567.53;5014387;28;20037;-82
2023/12/27 00:51:51;;;;;;;22.00;10.23;;;;;;;5.04;68.81;95570.97;5014835;28;20036;-83
2023/12/27 00:54:18;;;;;;;26.77;10.45;;;;;;;4.88;69.04;95549.84;5014730;28;20073;-83
2023/12/27 00:56:43;;;;;;;24.77;10.73;;;;;;;5.08;69.29;95596.81;5014583;28;20029;-82
2023/12/27 00:59:09;;;;;;;24.88;10.98;;;;;;;5.29;69.35;95618.06;5015090;28;20401;-82
2023/12/27 01:01:35;;;;;;;30.50;10.45;;;;;;;5.22;69.06;95606.06;5014752;28;20527;-82
2023/12/27 01:04:00;;;;;;;23.55;11.15;;;;;;;4.31;69.95;95485.72;5014728;28;20068;-82
2023/12/27 01:06:26;;;;;;;24.10;10.23;;;;;;;5.19;69.45;95612.56;5014660;28;20029;-83
2023/12/27 01:08:51;;;;;;;25.48;10.25;;;;;;;4.93;69.62;95584.94;5014001;28;20433;-83
2023/12/27 01:11:17;;;;;;;26.95;11.15;;;;;;;5.14;69.37;95611.66;5014473;28;20045;-82
2023/12/27 01:13:42;;;;;;;27.40;9.77;;;;;;;5.24;69.12;95639.00;5014697;28;20034;-82
2023/12/27 01:16:08;;;;;;;25.13;10.07;;;;;;;4.62;70.11;95580.78;5014532;28;20056;-82
2023/12/27 01:18:34;;;;;;;27.35;10.93;;;;;;;4.86;69.86;95601.84;5014121;28;20029;-82
2023/12/27 01:20:59;;;;;;;28.13;10.23;;;;;;;5.03;70.75;95629.81;5014766;28;20042;-82
2023/12/27 01:23:25;;;;;;;24.02;10.60;;;;;;;4.68;70.52;95609.78;5015030;28;20041;-82
2023/12/27 01:25:50;;;;;;;23.88;10.23;;;;;;;4.84;70.52;95630.16;5016547;28;20068;-82
2023/12/27 01:28:16;;;;;;;23.10;9.65;;;;;;;4.85;71.20;95629.13;5018663;28;20041;-82
2023/12/27 01:30:42;;;;;;;24.80;10.52;;;;;;;4.91;70.81;95636.91;5018597;28;20039;-82
2023/12/27 01:33:07;;;;;;;22.83;10.07;;;;;;;4.72;70.90;95603.88;5018388;28;20041;-82
2023/12/27 01:35:33;;;;;;;28.30;10.48;;;;;;;5.02;70.55;95641.41;5018296;28;20037;-82
2023/12/27 01:37:58;;;;;;;26.00;10.18;;;;;;;4.77;70.96;95616.31;5017873;28;20034;-82
2023/12/27 01:40:24;;;;;;;22.70;9.57;;;;;;;4.82;70.65;95611.19;5035888;28;20037;-82
2023/12/27 01:42:49;;;;;;;24.10;10.07;;;;;;;4.78;70.77;95617.94;5035509;28;20075;-82
2023/12/27 01:45:15;;;;;;;21.52;9.13;;;;;;;4.90;71.20;95631.88;5017637;28;20115;-83
2023/12/27 01:47:42;;;;;;;22.70;10.27;;;;;;;4.84;70.94;95625.72;5017897;28;20037;-82
2023/12/27 01:50:09;;;;;;;24.63;10.07;;;;;;;4.65;70.30;95603.97;5017970;28;20037;-82
2023/12/27 01:52:35;;;;;;;21.60;10.30;;;;;;;4.64;70.90;95614.72;5035904;28;20030;-83
2023/12/27 01:55:01;;;;;;;22.77;8.98;;;;;;;4.59;70.56;95610.13;5055309;28;20029;-83
2023/12/27 01:57:27;;;;;;;25.33;9.88;;;;;;;4.54;71.49;95615.25;5059705;28;20026;-82
2023/12/27 01:59:53;;;;;;;26.13;9.95;;;;;;;4.75;71.65;95666.47;5059878;28;20036;-82
2023/12/27 02:02:18;;;;;;;22.23;9.95;;;;;;;4.62;72.01;95648.28;5046641;23;20054;-77
2023/12/27 02:04:44;;;;;;;21.00;9.30;;;;;;;4.51;72.24;95659.53;5035134;28;20048;-77
2023/12/27 02:07:10;;;;;;;20.95;9.90;;;;;;;3.92;73.43;95587.63;5035226;28;20429;-77
2023/12/27 02:09:37;;;;;;;25.88;9.48;;;;;;;4.36;73.79;95653.88;5034972;28;20106;-77
2023/12/27 02:12:02;;;;;;;18.08;8.30;;;;;;;4.42;73.43;95643.31;5034700;28;20127;-77
2023/12/27 02:14:28;;;;;;;22.58;8.15;;;;;;;4.32;73.25;95623.88;5051454;28;20029;-77
2023/12/27 02:16:54;;;;;;;23.52;9.60;;;;;;;4.45;72.96;95642.84;5034838;28;20470;-78
2023/12/27 02:19:24;;;;;;;20.75;9.18;;;;;;;4.01;72.84;95580.25;5034297;28;20128;-77
2023/12/27 02:21:52;;;;;;;22.15;9.27;;;;;;;4.03;73.25;95581.66;5034751;28;20163;-77
2023/12/27 02:24:22;;;;;;;20.17;10.02;;;;;;;4.31;73.19;95643.25;5034161;28;20037;-77
2023/12/27 02:26:48;;;;;;;24.13;9.73;;;;;;;4.12;74.26;95608.41;5036047;28;20034;-77
2023/12/27 02:29:14;;;;;;;23.40;9.38;;;;;;;4.44;73.51;95653.56;5035004;28;20049;-77
2023/12/27 02:31:40;;;;;;;21.83;10.18;;;;;;;4.62;73.80;95679.81;5050778;28;20029;-77
2023/12/27 02:34:05;;;;;;;26.38;10.23;;;;;;;4.42;73.55;95643.31;5034502;28;20138;-77
2023/12/27 02:36:31;;;;;;;25.60;9.75;;;;;;;4.48;74.03;95639.78;5034968;28;20107;-77
2023/12/27 02:38:56;;;;;;;25.45;10.27;;;;;;;4.23;73.88;95597.91;5035537;28;20044;-77
2023/12/27 02:41:22;;;;;;;25.58;10.57;;;;;;;4.48;73.53;95634.53;5034284;28;20407;-77
2023/12/27 02:43:48;;;;;;;20.30;8.88;;;;;;;4.80;73.04;95671.06;5034508;28;20037;-77
2023/12/27 02:46:13;;;;;;;25.30;10.52;;;;;;;4.72;73.67;95664.31;5034325;28;20033;-77
2023/12/27 02:48:38;;;;;;;24.88;10.18;;;;;;;4.80;73.21;95682.38;5036043;28;20038;-77
2023/12/27 02:51:04;;;;;;;20.20;10.82;;;;;;;4.73;72.87;95667.75;5035498;28;20070;-77
2023/12/27 02:53:29;;;;;;;24.55;10.48;;;;;;;4.83;73.00;95686.38;5038019;28;20033;-77
2023/12/27 02:55:55;;;;;;;44.33;13.25;;;;;;;4.87;72.25;95675.19;5034157;28;20037;-77
2023/12/27 02:58:21;;;;;;;26.52;9.55;;;;;;;4.63;72.74;95653.31;5034273;28;20068;-77
2023/12/27 03:00:48;;;;;;;20.75;9.40;;;;;;;4.74;72.62;95675.38;5035557;28;20056;-78
2023/12/27 03:03:13;;;;;;;27.17;9.93;;;;;;;4.39;73.91;95651.63;5034439;28;20037;-78
2023/12/27 03:05:39;;;;;;;28.05;10.05;;;;;;;4.55;73.56;95671.22;5036100;28;20036;-77
2023/12/27 03:08:05;;;;;;;26.40;9.27;;;;;;;4.40;73.16;95637.47;5035251;28;20123;-78
2023/12/27 03:10:30;;;;;;;20.13;9.05;;;;;;;4.50;73.26;95652.72;5035462;28;20067;-77
2023/12/27 03:12:56;;;;;;;17.88;9.20;;;;;;;4.41;73.01;95644.34;5034348;28;20029;-77
2023/12/27 03:15:22;;;;;;;23.60;9.55;;;;;;;4.65;74.34;95697.75;5035202;28;20026;-77
2023/12/27 03:17:47;;;;;;;21.33;8.65;;;;;;;4.57;74.32;95690.19;5035529;28;20040;-78
2023/12/27 03:20:13;;;;;;;23.50;10.15;;;;;;;4.31;74.06;95656.41;5034104;28;20038;-77
2023/12/27 03:22:38;;;;;;;22.17;9.60;;;;;;;4.64;73.75;95709.28;5035301;28;20534;-77
2023/12/27 03:25:04;;;;;;;21.38;9.13;;;;;;;4.61;73.57;95707.91;5049969;28;20113;-77
2023/12/27 03:27:30;;;;;;;24.65;9.68;;;;;;;4.19;73.74;95635.34;5035390;28;20511;-77
2023/12/27 03:29:55;;;;;;;24.20;10.35;;;;;;;4.00;73.87;95605.72;5033597;28;20065;-77
2023/12/27 03:32:23;;;;;;;27.48;9.10;;;;;;;4.72;73.41;95714.22;5033368;28;20036;-77
2023/12/27 03:34:49;;;;;;;22.85;9.80;;;;;;;4.46;73.85;95690.94;5033471;28;20045;-77
2023/12/27 03:37:15;;;;;;;29.88;10.68;;;;;;;4.61;74.07;95725.47;5034862;28;20033;-77
2023/12/27 03:39:44;;;;;;;25.60;10.50;;;;;;;4.24;73.95;95659.91;5034957;28;20155;-77
2023/12/27 03:42:10;;;;;;;31.15;10.85;;;;;;;4.51;73.93;95699.75;5033326;28;20026;-76
2023/12/27 03:44:35;;;;;;;25.48;10.85;;;;;;;3.77;74.43;95593.28;5034520;28;20033;-77
2023/12/27 03:47:01;;;;;;;31.55;11.60;;;;;;;4.43;74.85;95686.91;5035000;28;20508;-77
2023/12/27 03:49:26;;;;;;;23.85;10.63;;;;;;;4.25;75.43;95663.34;5034629;28;20045;-77
2023/12/27 03:51:52;;;;;;;31.50;11.35;;;;;;;4.50;77.34;95700.00;5033632;28;20137;-77
2023/12/27 03:54:18;;;;;;;23.02;9.70;;;;;;;4.50;77.78;95689.47;5035412;28;20040;-77
2023/12/27 03:56:44;;;;;;;29.00;9.98;;;;;;;4.15;77.98;95611.34;5033503;28;20040;-77
2023/12/27 03:59:10;;;;;;;21.42;9.20;;;;;;;4.89;78.19;95690.72;5033290;28;20492;-77
2023/12/27 04:01:36;;;;;;;22.92;8.90;;;;;;;5.04;78.36;95705.03;5033739;28;20053;-78
2023/12/27 04:04:02;;;;;;;22.58;8.95;;;;;;;5.12;77.77;95709.16;5050873;28;20096;-79
2023/12/27 04:06:27;;;;;;;22.50;7.38;;;;;;;5.29;77.63;95712.75;5051900;28;20052;-79
2023/12/27 04:08:53;;;;;;;17.25;8.13;;;;;;;5.38;77.75;95698.25;5052570;28;20048;-79
2023/12/27 04:11:19;;;;;;;25.45;9.07;;;;;;;5.62;77.82;95725.34;5050442;28;20029;-79
2023/12/27 04:13:44;;;;;;;23.10;7.82;;;;;;;5.22;77.33;95663.91;5051257;28;20041;-79
2023/12/27 04:16:10;;;;;;;23.15;7.57;;;;;;;5.53;76.59;95692.53;5050831;28;20116;-79
2023/12/27 04:18:36;;;;;;;19.40;7.68;;;;;;;5.77;77.11;95732.78;5052497;28;20029;-79
2023/12/27 04:21:01;;;;;;;30.52;8.63;;;;;;;5.75;77.03;95711.16;5050292;28;20109;-79
2023/12/27 04:23:27;;;;;;;17.98;7.38;;;;;;;5.90;76.64;95732.56;5051890;28;20039;-79
2023/12/27 04:25:52;;;;;;;18.88;7.85;;;;;;;6.03;76.32;95749.94;5051304;28;20492;-79
2023/12/27 04:28:18;;;;;;;20.85;7.80;;;;;;;5.92;75.28;95721.81;5051440;28;20028;-79
2023/12/27 04:30:43;;;;;;;25.63;8.50;;;;;;;5.86;75.15;95725.34;5051025;28;20034;-79
2023/12/27 04:33:09;;;;;;;19.77;8.35;;;;;;;6.04;74.97;95749.72;5051126;28;20017;-79
2023/12/27 04:35:34;;;;;;;30.05;9.25;;;;;;;6.00;75.46;95739.91;5049821;28;20036;-79
2023/12/27 04:38:00;;;;;;;21.98;7.95;;;;;;;5.17;74.54;95621.75;5050640;28;20598;-79
2023/12/27 04:40:26;;;;;;;15.68;8.73;;;;;;;6.03;74.71;95747.31;5049239;28;20056;-79
2023/12/27 04:42:53;;;;;;;19.45;8.02;;;;;;;6.08;75.13;95750.88;5049393;28;20033;-79
2023/12/27 04:45:18;;;;;;;24.13;8.73;;;;;;;6.08;75.52;95750.88;5049715;28;20021;-79
2023/12/27 04:47:44;;;;;;;16.40;7.38;;;;;;;5.73;76.06;95698.22;5049642;28;20047;-79
2023/12/27 04:50:09;;;;;;;24.52;8.65;;;;;;;5.94;77.12;95725.84;5051069;28;20034;-79
2023/12/27 04:52:35;;;;;;;16.10;7.20;;;;;;;5.77;76.48;95690.69;5050662;28;20033;-79
2023/12/27 04:55:01;;;;;;;14.63;7.68;;;;;;;6.21;76.65;95752.47;5048914;28;20029;-79
2023/12/27 04:57:26;;;;;;;25.20;7.57;;;;;;;6.27;75.97;95754.16;5049228;28;20044;-79
2023/12/27 04:59:52;;;;;;;21.67;7.60;;;;;;;6.20;75.19;95753.50;5049989;28;20048;-79
2023/12/27 05:02:17;;;;;;;16.13;8.20;;;;;;;6.32;74.54;95764.81;5055299;28;20101;-79
2023/12/27 05:04:43;;;;;;;25.85;10.23;;;;;;;6.25;74.04;95769.41;5053890;28;20048;-80
2023/12/27 05:07:09;;;;;;;17.85;7.95;;;;;;;6.04;74.09;95736.56;5054536;28;20042;-79
2023/12/27 05:09:34;;;;;;;23.42;8.48;;;;;;;6.05;74.56;95761.88;5054370;28;20041;-79
2023/12/27 05:12:01;;;;;;;29.75;9.63;;;;;;;6.02;75.74;95762.34;5052497;28;20040;-77
2023/12/27 05:14:27;;;;;;;21.75;8.93;;;;;;;6.09;75.81;95770.13;5035514;28;20037;-77
2023/12/27 05:16:55;;;;;;;20.05;9.15;;;;;;;6.14;75.81;95776.28;5037591;28;20033;-77
2023/12/27 05:19:21;;;;;;;26.20;11.55;;;;;;;5.87;74.77;95735.66;5037701;28;20037;-77
2023/12/27 05:21:46;;;;;;;30.35;13.50;;;;;;;6.02;74.58;95767.63;5036467;28;20119;-77
2023/12/27 05:24:12;;;;;;;26.42;12.40;;;;;;;6.05;74.52;95787.41;5035669;28;20033;-78
2023/12/27 05:26:38;;;;;;;27.25;12.15;;;;;;;6.12;74.25;95788.88;5035768;28;20065;-78
2023/12/27 05:29:03;;;;;;;32.17;11.90;;;;;;;5.94;74.45;95767.97;5037770;28;20494;-78
2023/12/27 05:31:29;;;;;;;32.50;12.90;;;;;;;5.98;74.48;95782.25;5037618;28;20094;-78
2023/12/27 05:33:55;;;;;;;33.13;12.13;;;;;;;5.97;74.63;95785.91;5036356;28;20037;-78
2023/12/27 05:36:21;;;;;;;46.90;13.60;;;;;;;5.42;74.53;95704.63;5036338;28;20055;-78
2023/12/27 05:38:47;;;;;;;32.30;13.88;;;;;;;5.35;74.07;95703.94;5036177;28;20025;-78
2023/12/27 05:41:12;;;;;;;34.33;12.30;;;;;;;5.95;74.35;95810.88;5035978;28;20037;-78
2023/12/27 05:43:38;;;;;;;26.85;12.02;;;;;;;5.78;75.24;95802.81;5037854;28;20067;-79
2023/12/27 05:46:04;;;;;;;41.28;14.80;;;;;;;5.87;75.40;95817.25;5036814;28;20095;-78
2023/12/27 05:48:29;;;;;;;35.22;14.70;;;;;;;5.69;75.42;95807.63;5035938;28;20041;-78
2023/12/27 05:50:55;;;;;;;37.17;14.75;;;;;;;5.79;75.19;95822.84;5037001;28;20506;-78
2023/12/27 05:53:20;;;;;;;46.60;16.95;;;;;;;5.50;75.35;95792.94;5035674;28;20353;-78
2023/12/27 05:55:46;;;;;;;39.78;14.93;;;;;;;5.61;75.89;95822.94;5037256;28;20033;-77
2023/12/27 05:58:12;;;;;;;33.70;13.10;;;;;;;5.75;75.58;95848.00;5035947;28;20124;-77
2023/12/27 06:00:37;;;;;;;29.02;13.00;;;;;;;5.49;75.88;95804.50;5038772;28;20124;-78
2023/12/27 06:03:03;;;;;;;38.88;13.80;;;;;;;5.76;75.70;95854.88;5035549;28;20061;-78
2023/12/27 06:05:29;;;;;;;30.88;13.30;;;;;;;5.52;75.66;95819.03;5035005;28;20036;-78
2023/12/27 06:07:54;;;;;;;29.45;12.98;;;;;;;5.67;75.69;95849.16;5035337;28;20427;-77
2023/12/27 06:10:20;;;;;;;31.23;13.43;;;;;;;5.57;76.18;95840.22;5035254;28;20045;-78
2023/12/27 06:12:45;;;;;;;27.60;13.48;;;;;;;5.63;76.38;95858.53;5036767;28;20037;-77
2023/12/27 06:15:11;;;;;;;32.85;12.60;;;;;;;5.74;75.62;95867.47;5035287;28;20515;-78
2023/12/27 06:17:37;;;;;;;34.25;13.15;;;;;;;5.51;75.89;95841.09;5034926;28;20029;-78
2023/12/27 06:20:04;;;;;;;27.20;13.00;;;;;;;5.32;76.84;95822.75;5035419;28;20419;-78
2023/12/27 06:25:03;;;;;;;18.95;9.50;;;;;;;5.18;78.30;95789.81;5078610;28;20127;-90
2023/12/27 06:27:29;;;;;;;23.10;8.82;;;;;;;5.01;79.81;95749.41;5078202;28;20044;-90
2023/12/27 06:29:54;;;;;;;32.05;12.82;;;;;;;4.88;79.52;95720.69;5062182;28;20105;-90
2023/12/27 06:32:20;;;;;;;20.73;8.20;;;;;;;5.67;80.48;95817.56;5079536;28;20044;-90
2023/12/27 06:34:45;;;;;;;22.42;7.80;;;;;;;5.65;80.78;95809.09;5060887;28;20051;-90
2023/12/27 06:37:11;;;;;;;17.23;8.40;;;;;;;5.30;80.22;95750.38;5084146;28;20044;-93
2023/12/27 06:39:37;;;;;;;17.38;7.93;;;;;;;4.93;79.76;95673.50;5067356;28;20036;-91
2023/12/27 06:42:02;;;;;;;14.10;7.35;;;;;;;6.31;79.43;95879.13;5067597;28;20563;-92
2023/12/27 06:44:28;;;;;;;23.10;8.10;;;;;;;5.66;79.06;95754.63;5083554;28;20048;-92
2023/12/27 06:46:54;;;;;;;16.02;7.25;;;;;;;6.48;79.01;95881.88;5083908;28;20108;-91
2023/12/27 06:49:19;;;;;;;32.90;9.52;;;;;;;4.70;78.86;95600.66;5066311;28;20033;-92
2023/12/27 06:51:45;;;;;;;18.52;7.57;;;;;;;4.93;78.69;95634.88;5084276;28;20043;-91
2023/12/27 06:54:10;;;;;;;22.55;8.68;;;;;;;6.45;78.62;95869.16;5066050;28;20031;-91
2023/12/27 06:56:38;;;;;;;17.63;8.35;;;;;;;4.60;78.69;95598.59;5066230;28;20438;-92
2023/12/27 06:59:04;;;;;;;21.40;8.45;;;;;;;6.12;78.26;95827.56;5065602;28;20032;-92
2023/12/27 07:01:30;;;;;;;23.70;8.77;;;;;;;6.09;78.42;95822.78;5084722;28;20096;-91
2023/12/27 07:03:55;;;;;;;16.52;8.27;;;;;;;6.80;78.46;95919.97;5065062;28;20036;-92
2023/12/27 07:06:21;;;;;;;16.73;7.50;;;;;;;6.03;78.23;95808.69;5065554;28;20036;-92
2023/12/27 07:08:46;;;;;;;15.38;7.80;;;;;;;6.81;78.36;95926.06;5065659;28;20038;-92
2023/12/27 07:11:19;;;;;;;26.48;8.00;;;;;;;5.66;78.30;95760.69;5065841;28;20044;-92
2023/12/27 07:13:46;;;;;;;21.67;8.07;;;;;;;6.06;78.62;95824.03;5065484;28;20108;-91
2023/12/27 07:16:13;;;;;;;19.00;8.40;;;;;;;6.37;78.36;95888.75;5065237;28;20325;-88
2023/12/27 07:18:39;;;;;;;17.33;7.95;;;;;;;5.99;78.16;95839.16;5080960;28;20036;-87
2023/12/27 07:21:05;;;;;;;24.33;9.32;;;;;;;6.63;77.77;95919.09;5062905;28;20102;-88
2023/12/27 07:23:31;;;;;;;30.42;15.10;;;;;;;6.40;76.92;95903.28;5061486;28;20057;-88
2023/12/27 07:25:59;;;;;;;46.20;20.50;;;;;;;6.88;75.79;95982.91;5062324;28;20094;-88
2023/12/27 07:28:25;;;;;;;42.65;17.27;;;;;;;5.21;75.39;95720.16;5063401;28;20101;-89
2023/12/27 07:30:51;;;;;;;48.72;20.13;;;;;;;3.45;75.05;95453.66;5063467;28;20036;-87
2023/12/27 07:33:17;;;;;;;49.55;20.85;;;;;;;5.61;75.23;95800.06;5062907;28;20041;-87
2023/12/27 07:35:43;;;;;;;51.72;24.17;;;;;;;6.56;75.41;95956.09;5063726;28;20422;-88
2023/12/27 07:38:09;;;;;;;49.13;21.45;;;;;;;5.87;75.16;95840.16;5062884;28;20374;-88
2023/12/27 07:40:34;;;;;;;54.25;20.75;;;;;;;6.38;75.84;95932.50;5062816;28;20036;-87
2023/12/27 07:43:02;;;;;;;43.30;17.90;;;;;;;4.08;75.92;95557.34;5064203;28;20037;-87
2023/12/27 07:45:27;;;;;;;43.80;20.75;;;;;;;6.40;76.18;95927.00;5062545;28;20037;-91
2023/12/27 07:47:53;;;;;;;50.38;21.15;;;;;;;6.30;76.54;95881.97;5060751;28;20499;-90
2023/12/27 07:50:18;;;;;;;43.88;18.60;;;;;;;6.91;76.40;95974.53;5060601;28;20400;-91
2023/12/27 07:52:44;;;;;;;40.72;18.27;;;;;;;5.55;76.46;95748.34;5059921;28;20056;-90
2023/12/27 07:55:10;;;;;;;18.60;9.90;;;;;;;4.23;76.73;95531.50;5059926;28;20055;-90
2023/12/27 07:57:36;;;;;;;29.60;10.18;;;;;;;7.26;77.00;95992.94;5059636;28;20032;-91
2023/12/27 08:00:02;;;;;;;25.17;10.43;;;;;;;6.97;77.02;95959.63;5059468;28;20108;-90
2023/12/27 08:02:28;;;;;;;18.55;8.68;;;;;;;7.06;76.84;95949.53;5058923;28;20052;-90
2023/12/27 08:04:53;;;;;;;16.95;8.15;;;;;;;7.19;76.34;95949.25;5059724;28;20037;-90
2023/12/27 08:07:19;;;;;;;24.67;8.13;;;;;;;6.76;76.18;95862.69;5078507;28;20033;-91
2023/12/27 08:09:44;;;;;;;19.70;8.70;;;;;;;4.17;75.47;95461.53;5059702;28;20080;-90
2023/12/27 08:12:10;;;;;;;15.07;7.70;;;;;;;5.24;75.68;95615.34;5077726;28;20432;-90
2023/12/27 08:14:36;;;;;;;26.98;7.47;;;;;;;7.11;75.46;95897.66;5076840;28;20047;-90
2023/12/27 08:17:02;;;;;;;19.42;7.72;;;;;;;7.09;74.75;95888.41;5059541;28;20039;-91
2023/12/27 08:19:27;;;;;;;25.92;7.15;;;;;;;7.97;75.02;96019.94;5076437;28;20036;-90
2023/12/27 08:21:53;;;;;;;15.25;6.53;;;;;;;7.20;74.26;95916.56;5059353;28;20109;-91
2023/12/27 08:24:18;;;;;;;18.90;6.65;;;;;;;7.67;73.93;95968.16;5058388;28;20053;-90
2023/12/27 08:26:46;;;;;;;16.42;6.57;;;;;;;7.98;74.50;96027.63;5037454;22;20076;-80
2023/12/27 08:29:12;;;;;;;22.58;7.15;;;;;;;8.21;73.38;96024.09;4990990;28;20096;-79
2023/12/27 08:31:37;;;;;;;21.30;7.40;;;;;;;7.86;73.57;95975.91;4992796;28;20034;-79
2023/12/27 08:34:04;;;;;;;16.63;6.57;;;;;;;7.71;73.09;95956.09;4991007;28;20394;-79
2023/12/27 08:36:29;;;;;;;23.58;8.23;;;;;;;8.23;73.51;96031.78;4992933;28;20069;-80
2023/12/27 08:38:55;;;;;;;15.70;7.35;;;;;;;8.06;73.67;96000.84;4991371;28;20374;-79
2023/12/27 08:41:22;;;;;;;20.60;7.43;;;;;;;8.13;73.78;96030.56;4993077;28;20083;-79
2023/12/27 08:43:48;;;;;;;16.58;7.50;;;;;;;8.01;73.99;96010.53;4991755;28;20547;-79
2023/12/27 08:46:16;;;;;;;21.05;8.02;;;;;;;8.17;73.88;96032.72;4992761;28;20038;-79
2023/12/27 08:48:42;;;;;;;23.80;8.23;;;;;;;8.12;73.52;96034.22;4992198;28;20587;-79
2023/12/27 08:51:09;;;;;;;21.85;8.35;;;;;;;8.22;73.20;96056.59;4991325;28;20143;-79
2023/12/27 08:53:35;;;;;;;22.25;7.80;;;;;;;8.03;73.72;96016.34;4992924;28;20038;-79
2023/12/27 08:56:00;;;;;;;17.23;8.20;;;;;;;8.21;73.34;96028.56;4993441;28;20037;-79
2023/12/27 08:58:26;;;;;;;21.73;8.43;;;;;;;8.46;72.73;96055.47;4995008;28;20045;-84
2023/12/27 09:00:51;;;;;;;16.15;6.97;;;;;;;8.10;72.64;96001.16;4997787;28;20106;-83
2023/12/27 09:03:17;;;;;;;24.33;7.28;;;;;;;8.60;72.86;96059.41;4997162;28;20124;-83
2023/12/27 09:05:42;;;;;;;26.77;7.68;;;;;;;8.48;72.09;96035.69;4994072;28;20039;-83
2023/12/27 09:08:08;;;;;;;20.23;7.32;;;;;;;8.59;71.99;96065.75;4992968;28;20133;-83
2023/12/27 09:10:34;;;;;;;21.30;7.68;;;;;;;8.19;72.00;95997.09;4999215;28;20070;-83
2023/12/27 09:13:00;;;;;;;18.42;6.75;;;;;;;8.45;71.81;96017.66;4999358;28;20066;-83
2023/12/27 09:15:26;;;;;;;21.65;6.82;;;;;;;8.42;71.36;95994.34;4998906;28;20026;-83
2023/12/27 09:17:51;;;;;;;16.55;6.97;;;;;;;8.49;70.99;95978.31;4999268;28;20498;-83
2023/12/27 09:20:17;;;;;;;18.17;5.72;;;;;;;8.54;70.79;95965.19;4997436;28;20120;-82
2023/12/27 09:22:43;;;;;;;19.48;6.03;;;;;;;8.48;70.52;95969.59;4998456;28;20114;-83
2023/12/27 09:25:08;;;;;;;15.90;6.38;;;;;;;8.79;70.29;96007.88;4994932;28;20042;-82
2023/12/27 09:27:34;;;;;;;19.75;6.28;;;;;;;9.00;69.97;96010.84;5031688;28;20057;-83
2023/12/27 09:29:59;;;;;;;18.25;6.35;;;;;;;8.40;69.92;95929.53;5032843;28;20098;-83
2023/12/27 09:32:25;;;;;;;19.52;5.82;;;;;;;9.17;69.15;96019.53;5021667;28;20077;-83
2023/12/27 09:34:50;;;;;;;17.58;5.55;;;;;;;9.14;70.09;96020.03;5014143;28;20041;-83
2023/12/27 09:37:16;;;;;;;13.35;5.72;;;;;;;9.22;69.23;96012.47;5034381;28;20044;-83
2023/12/27 09:39:41;;;;;;;22.45;6.75;;;;;;;9.17;68.93;95979.84;5014516;28;20037;-83
2023/12/27 09:42:08;;;;;;;14.90;6.88;;;;;;;9.39;69.03;96001.81;5015200;28;20025;-83
2023/12/27 09:44:36;;;;;;;13.07;4.57;;;;;;;9.42;68.43;96000.53;5014530;28;20045;-83
2023/12/27 09:47:03;;;;;;;15.07;5.90;;;;;;;8.99;68.12;95919.28;5034299;28;20041;-83
2023/12/27 09:49:32;;;;;;;15.80;6.00;;;;;;;9.37;68.01;95958.13;5035459;28;20526;-83
2023/12/27 09:51:58;;;;;;;16.15;5.20;;;;;;;9.58;67.33;95992.53;5017547;28;20087;-83
2023/12/27 09:54:24;;;;;;;26.33;7.50;;;;;;;9.29;67.62;95938.19;5017480;28;20044;-83
2023/12/27 09:56:50;;;;;;;11.43;4.75;;;;;;;9.51;67.44;95978.69;5017657;28;20475;-83
2023/12/27 09:59:26;;;;;;;11.52;4.85;;;;;;;9.41;66.82;95953.94;5035131;28;20498;-83
2023/12/27 10:01:57;;;;;;;11.93;4.28;;;;;;;9.18;66.66;95917.94;5017264;28;20041;-84
2023/12/27 10:04:44;;;;;;;13.00;4.70;;;;;;;9.33;66.48;95927.88;5035628;28;20543;-83
2023/12/27 10:07:12;;;;;;;12.25;5.18;;;;;;;9.77;66.70;95990.34;5016695;28;20115;-80
2023/12/27 10:09:38;;;;;;;8.73;4.57;;;;;;;9.74;65.98;95987.41;5016327;28;20042;-79
2023/12/27 10:12:07;;;;;;;9.40;5.15;;;;;;;9.29;66.75;95944.28;5034855;28;20042;-80
2023/12/27 10:14:35;;;;;;;10.52;5.03;;;;;;;9.18;65.72;95921.38;5016851;28;20438;-80
2023/12/27 10:17:02;;;;;;;10.30;4.25;;;;;;;9.82;65.18;96016.94;5034591;28;20510;-80
2023/12/27 10:19:46;;;;;;;10.55;4.45;;;;;;;10.14;64.35;96000.31;5016966;28;20152;-79
2023/12/27 10:22:12;;;;;;;13.88;4.07;;;;;;;10.89;62.32;96012.63;5017134;28;20096;-80
2023/12/27 10:24:39;;;;;;;16.30;4.18;;;;;;;11.07;60.76;95929.94;5035061;28;20041;-79
2023/12/27 10:27:06;;;;;;;14.25;4.63;;;;;;;11.99;58.33;95988.50;5034317;28;20057;-80
2023/12/27 10:29:33;;;;;;;10.32;4.40;;;;;;;12.43;57.08;95969.44;5034442;28;20044;-79
2023/12/27 10:32:00;;;;;;;11.40;4.95;;;;;;;12.40;55.96;95879.50;5017232;28;20107;-79
2023/12/27 10:34:26;;;;;;;9.00;4.30;;;;;;;12.77;54.57;95881.84;5016665;28;20033;-79
2023/12/27 10:36:57;;;;;;;17.85;4.93;;;;;;;13.46;53.32;95945.03;5034893;28;20042;-79
2023/12/27 10:39:23;;;;;;;16.00;4.10;;;;;;;13.49;53.00;95921.31;5034554;28;20033;-80
2023/12/27 10:41:51;;;;;;;12.20;4.57;;;;;;;13.69;52.02;95931.09;5034666;28;20036;-80
2023/12/27 10:44:18;;;;;;;14.57;4.22;;;;;;;13.71;52.23;95936.16;5034271;28;20037;-80
2023/12/27 10:46:44;;;;;;;15.38;4.15;;;;;;;13.83;52.14;95960.59;5034141;28;20489;-80
2023/12/27 10:49:15;;;;;;;10.77;3.65;;;;;;;13.70;52.82;95961.19;5016545;28;20034;-80
2023/12/27 10:51:42;;;;;;;14.40;4.20;;;;;;;13.45;52.63;95906.13;5016679;28;20033;-79
2023/12/27 10:54:10;;;;;;;12.18;4.20;;;;;;;13.86;52.51;95966.19;5016765;28;20044;-80
2023/12/27 10:56:40;;;;;;;7.97;4.35;;;;;;;13.47;52.23;95914.66;5016637;28;20420;-80
2023/12/27 10:59:07;;;;;;;9.32;4.53;;;;;;;13.59;52.51;95960.44;5014903;28;20049;-80
2023/12/27 11:01:34;;;;;;;8.80;4.00;;;;;;;12.92;52.97;95868.50;5016492;28;20558;-81
2023/12/27 11:04:07;;;;;;;15.38;4.72;;;;;;;12.81;53.35;95896.22;5016028;28;20099;-80
2023/12/27 11:06:38;;;;;;;9.20;3.90;;;;;;;12.72;53.69;95901.28;5016206;28;20033;-80
2023/12/27 11:09:08;;;;;;;10.37;4.10;;;;;;;12.88;54.49;95947.31;5016418;28;20033;-80
2023/12/27 11:11:37;;;;;;;10.48;5.00;;;;;;;12.80;55.07;95963.03;5034027;28;20346;-80
2023/12/27 11:14:04;;;;;;;12.80;4.50;;;;;;;12.58;55.21;95960.66;5000106;28;20099;-80
2023/12/27 11:16:33;;;;;;;12.70;4.82;;;;;;;12.38;55.79;95945.47;5017257;28;20124;-84
2023/12/27 11:18:59;;;;;;;17.05;4.55;;;;;;;12.61;56.31;95984.84;5017378;28;20033;-84
2023/12/27 11:21:26;;;;;;;11.23;4.35;;;;;;;12.13;55.94;95906.34;5036374;28;20407;-84
2023/12/27 11:23:52;;;;;;;15.63;4.18;;;;;;;12.38;56.44;95966.75;5016538;28;20065;-84
2023/12/27 11:26:18;;;;;;;12.00;4.15;;;;;;;12.50;56.63;95969.97;5016237;28;20052;-84